Time;durP1;ratioP1;P1;durP2;ratioP2;P2;SDS_P1;SDS_P2;PMS_P1;PMS_P2;Temp;Humidity;BMP_temperature;BMP_pressure;BME280_temperature;BME280_humidity;BME280_pressure;Samples;Min_cycle;Max_cycle;Signal;HPM_P1;HPM_P2
2024/02/04 06:04:23;;;;;;;10.70;5.53;;;6.00;99.90;;;;;;7486594;19;2949894;-75
2024/02/04 06:06:56;;;;;;;12.10;5.38;;;6.00;99.90;;;;;;7638209;19;21085;-73
2024/02/04 06:09:28;;;;;;;9.57;4.95;;;6.10;99.90;;;;;;7639263;19;20037;-75
2024/02/04 06:12:00;;;;;;;8.55;5.90;;;6.10;99.90;;;;;;7636250;19;22537;-75
2024/02/04 06:14:34;;;;;;;9.73;5.90;;;6.20;99.90;;;;;;7636955;19;20652;-74
2024/02/04 06:17:08;;;;;;;14.73;5.75;;;6.30;99.90;;;;;;7643785;19;20018;-74
2024/02/04 06:19:40;;;;;;;;;;;6.30;99.90;;;;;;7625742;19;20014;-76
2024/02/04 06:22:14;;;;;;;8.75;5.03;;;6.30;99.90;;;;;;7636203;19;19929;-74
2024/02/04 06:24:46;;;;;;;8.18;4.68;;;6.40;99.90;;;;;;7632095;19;21000;-75
2024/02/04 06:27:19;;;;;;;10.00;4.65;;;6.50;99.90;;;;;;7628866;19;20007;-74
2024/02/04 06:29:51;;;;;;;10.65;5.30;;;6.50;99.90;;;;;;7610231;19;20010;-75
2024/02/04 06:32:24;;;;;;;8.65;5.10;;;6.60;99.90;;;;;;7626081;19;20014;-76
2024/02/04 06:34:58;;;;;;;10.25;5.15;;;6.60;99.90;;;;;;7616829;19;20007;-77
2024/02/04 06:37:31;;;;;;;10.98;4.80;;;6.60;99.90;;;;;;7621148;19;20393;-76
2024/02/04 06:40:04;;;;;;;8.63;4.55;;;6.70;99.90;;;;;;7604471;19;20106;-74
2024/02/04 06:42:36;;;;;;;8.10;5.20;;;6.70;99.90;;;;;;7606802;19;20021;-76
2024/02/04 06:45:09;;;;;;;9.35;4.88;;;6.70;99.90;;;;;;7612962;19;20024;-75
2024/02/04 06:47:45;;;;;;;10.47;5.00;;;6.70;99.90;;;;;;7619595;19;20014;-76
2024/02/04 06:50:17;;;;;;;9.25;5.45;;;6.80;99.90;;;;;;7624989;19;20014;-76
2024/02/04 06:52:49;;;;;;;8.75;5.82;;;6.80;99.90;;;;;;7618297;19;20018;-74
2024/02/04 06:55:22;;;;;;;10.75;5.72;;;6.80;99.90;;;;;;7611206;19;20018;-74
2024/02/04 06:57:54;;;;;;;13.32;5.10;;;6.80;99.90;;;;;;7617916;19;20011;-74
2024/02/04 07:00:27;;;;;;;9.10;5.10;;;6.80;99.90;;;;;;7605035;19;25531;-75
2024/02/04 07:03:00;;;;;;;13.37;5.43;;;6.80;99.90;;;;;;7605253;19;20443;-76
2024/02/04 07:05:33;;;;;;;13.23;5.65;;;6.80;99.90;;;;;;7612564;19;20015;-76
2024/02/04 07:08:06;;;;;;;13.45;5.75;;;6.80;99.90;;;;;;7613467;19;20014;-75
2024/02/04 07:10:39;;;;;;;12.23;6.10;;;6.90;99.90;;;;;;7601851;19;20026;-74
2024/02/04 07:13:12;;;;;;;8.98;6.18;;;6.90;99.90;;;;;;7627488;19;20011;-76
2024/02/04 07:15:45;;;;;;;16.27;5.70;;;6.90;99.90;;;;;;7580039;19;20022;-76
2024/02/04 07:18:21;;;;;;;13.57;6.77;;;6.90;99.90;;;;;;7584212;19;20022;-76
2024/02/04 07:20:54;;;;;;;11.05;6.65;;;6.90;99.90;;;;;;7587454;19;20298;-77
2024/02/04 07:23:26;;;;;;;11.82;6.60;;;7.00;99.90;;;;;;7578360;19;20015;-76
2024/02/04 07:25:58;;;;;;;17.25;7.00;;;7.00;99.90;;;;;;7574858;19;21567;-76
2024/02/04 07:28:31;;;;;;;15.97;7.50;;;7.00;99.90;;;;;;7576375;19;20007;-74
2024/02/04 07:31:03;;;;;;;16.20;7.15;;;7.10;99.90;;;;;;7576874;19;20118;-75
2024/02/04 07:33:36;;;;;;;11.98;6.90;;;7.10;99.90;;;;;;7587537;19;20057;-74
2024/02/04 07:36:11;;;;;;;16.48;8.13;;;7.10;99.90;;;;;;7592917;19;20018;-75
2024/02/04 07:38:43;;;;;;;16.55;7.15;;;7.10;99.90;;;;;;7587208;19;20018;-75
2024/02/04 07:41:16;;;;;;;19.10;9.07;;;7.10;99.90;;;;;;7593713;19;21106;-76
2024/02/04 07:43:48;;;;;;;10.87;7.30;;;7.10;99.90;;;;;;7594034;19;20045;-76
2024/02/04 07:46:21;;;;;;;15.27;8.32;;;7.10;99.90;;;;;;7597229;19;20937;-75
2024/02/04 14:42:18;;;;;;;5.43;2.67;;;11.10;99.90;;;;;;7604873;19;20362;-76
2024/02/04 14:44:50;;;;;;;;;;;11.10;99.90;;;;;;7618755;19;20018;-77
2024/02/04 14:47:22;;;;;;;8.60;2.92;;;11.10;99.90;;;;;;7606740;19;19972;-75
2024/02/04 14:49:55;;;;;;;4.40;2.17;;;11.20;99.90;;;;;;7616568;19;20014;-75
2024/02/04 14:52:27;;;;;;;6.97;2.03;;;11.20;99.90;;;;;;7638009;19;20018;-75
2024/02/04 14:55:00;;;;;;;5.50;2.25;;;11.30;99.90;;;;;;7646648;19;20283;-76
2024/02/04 14:57:32;;;;;;;5.25;2.70;;;11.40;99.90;;;;;;7629587;19;20010;-75
2024/02/04 15:00:05;;;;;;;4.90;2.42;;;11.40;99.90;;;;;;7594499;19;20019;-75
2024/02/04 15:02:38;;;;;;;5.55;1.75;;;11.50;99.90;;;;;;7617565;19;20028;-76
2024/02/04 15:05:11;;;;;;;7.87;2.23;;;11.50;99.90;;;;;;7607991;19;20022;-75
2024/02/04 15:07:44;;;;;;;7.20;2.10;;;11.50;99.90;;;;;;7618161;19;20018;-75
2024/02/04 15:10:20;;;;;;;5.35;2.25;;;11.50;99.90;;;;;;7618051;19;21029;-74
2024/02/04 15:12:53;;;;;;;4.90;1.80;;;11.50;99.90;;;;;;7629613;19;21302;-75
2024/02/04 15:15:26;;;;;;;6.13;2.10;;;11.50;99.90;;;;;;7621121;19;20431;-75
2024/02/04 15:18:00;;;;;;;4.27;1.87;;;11.50;99.90;;;;;;7618852;19;20031;-77
2024/02/04 15:20:33;;;;;;;12.13;2.13;;;11.50;99.90;;;;;;7629036;19;20101;-76
2024/02/04 15:23:06;;;;;;;8.17;2.67;;;11.50;99.90;;;;;;7635557;19;20021;-77
2024/02/04 15:25:39;;;;;;;6.10;2.70;;;11.60;99.90;;;;;;7633504;19;20290;-75
2024/02/04 15:28:14;;;;;;;;;;;11.50;99.90;;;;;;7610603;19;20941;-76
2024/02/04 15:30:47;;;;;;;8.25;2.70;;;11.50;99.90;;;;;;7633842;19;19926;-76
2024/02/04 15:33:20;;;;;;;9.75;2.95;;;11.50;99.90;;;;;;7621733;19;20018;-76
2024/02/04 15:35:52;;;;;;;10.00;3.60;;;11.40;99.90;;;;;;7630503;19;20667;-74
2024/02/04 15:38:27;;;;;;;10.45;2.97;;;11.40;99.90;;;;;;7633396;19;20090;-77
2024/02/04 15:40:59;;;;;;;4.20;2.20;;;11.40;99.90;;;;;;7646219;19;20010;-77
2024/02/04 15:43:32;;;;;;;6.60;1.85;;;11.40;99.90;;;;;;7636926;19;20388;-75
2024/02/04 15:46:10;;;;;;;9.10;2.27;;;11.40;99.90;;;;;;7646287;19;20050;-76
2024/02/04 15:48:45;;;;;;;6.95;2.10;;;11.40;99.90;;;;;;7633720;19;20017;-75
2024/02/04 15:51:18;;;;;;;4.85;1.90;;;11.40;99.90;;;;;;7615470;19;20010;-74
2024/02/04 15:53:51;;;;;;;7.20;2.60;;;11.40;99.90;;;;;;7583296;19;20028;-77
2024/02/04 15:56:26;;;;;;;7.53;2.08;;;11.40;99.90;;;;;;7587259;19;20022;-75
2024/02/04 15:59:09;;;;;;;4.88;2.00;;;11.40;99.90;;;;;;7586613;19;20014;-77
2024/02/04 16:01:42;;;;;;;5.85;2.35;;;11.40;99.90;;;;;;7586039;19;20687;-75
2024/02/04 16:04:17;;;;;;;3.83;1.67;;;11.40;99.90;;;;;;7586073;19;20015;-77
2024/02/04 16:06:50;;;;;;;8.77;2.50;;;11.40;99.90;;;;;;7571054;19;20056;-76
2024/02/04 16:09:23;;;;;;;9.90;2.27;;;11.40;99.90;;;;;;7577917;19;20014;-76
2024/02/04 16:12:04;;;;;;;9.65;2.67;;;11.30;99.90;;;;;;7583038;19;20014;-75
2024/02/04 16:14:37;;;;;;;4.72;1.70;;;11.30;99.90;;;;;;7569019;19;20037;-76
2024/02/04 16:17:16;;;;;;;;;;;11.40;99.90;;;;;;7586794;19;20017;-75
2024/02/04 16:19:53;;;;;;;3.25;1.50;;;11.30;99.90;;;;;;7585467;19;19928;-76
2024/02/04 16:22:26;;;;;;;3.50;1.95;;;11.40;99.90;;;;;;7565975;19;20060;-76
2024/02/04 16:24:59;;;;;;;5.35;2.00;;;11.30;99.90;;;;;;7581191;19;20010;-74
2024/02/04 16:27:32;;;;;;;5.53;1.77;;;11.30;99.90;;;;;;7567433;19;20018;-74
2024/02/04 16:30:05;;;;;;;4.55;1.90;;;11.40;99.90;;;;;;7579512;19;20040;-74
2024/02/04 16:32:37;;;;;;;3.67;2.22;;;11.40;99.90;;;;;;7594593;19;20036;-73
2024/02/04 16:35:10;;;;;;;5.60;2.17;;;11.30;99.90;;;;;;7602619;19;20019;-75
2024/02/04 16:37:42;;;;;;;9.75;4.75;;;11.30;99.90;;;;;;7591917;19;21694;-75
2024/02/04 16:40:14;;;;;;;15.88;7.32;;;11.30;99.90;;;;;;7594289;19;20011;-75
2024/02/04 16:42:48;;;;;;;5.57;3.05;;;11.30;99.90;;;;;;7592632;19;20018;-75
2024/02/04 16:45:20;;;;;;;4.95;1.52;;;11.30;99.90;;;;;;7567915;19;20020;-75
2024/02/04 16:47:54;;;;;;;2.35;1.42;;;11.30;99.90;;;;;;7623287;19;20405;-76
2024/02/04 16:50:28;;;;;;;13.77;5.32;;;11.30;99.90;;;;;;7597931;19;20037;-76
2024/02/04 16:53:05;;;;;;;5.60;2.65;;;11.30;99.90;;;;;;7600764;19;20049;-76
2024/02/04 16:55:38;;;;;;;5.77;2.90;;;11.30;99.90;;;;;;7554539;19;20018;-77
2024/02/04 16:58:11;;;;;;;;;;;11.30;99.90;;;;;;7573475;19;20480;-76
2024/02/04 17:00:45;;;;;;;5.80;1.57;;;11.30;99.90;;;;;;7560195;19;19937;-76
2024/02/04 17:03:19;;;;;;;4.47;1.40;;;11.20;99.90;;;;;;7560542;19;20018;-77
2024/02/04 17:05:52;;;;;;;3.75;1.70;;;11.20;99.90;;;;;;7587384;19;20129;-77
2024/02/04 17:08:28;;;;;;;6.60;1.80;;;11.20;99.90;;;;;;7579036;19;20023;-77
2024/02/04 17:11:02;;;;;;;6.50;2.22;;;11.20;99.90;;;;;;7570060;19;20934;-74
2024/02/04 17:13:35;;;;;;;5.65;2.83;;;11.20;99.90;;;;;;7578437;19;20023;-76
2024/02/04 17:16:26;;;;;;;5.78;2.63;;;11.20;99.90;;;;;;7574660;19;20014;-75
2024/02/04 17:19:19;;;;;;;6.82;2.67;;;11.20;99.90;;;;;;7589700;19;20002;-75
2024/02/04 17:21:56;;;;;;;;;;;11.10;99.90;;;;;;7585724;19;20049;-75
2024/02/04 17:24:28;;;;;;;3.40;1.73;;;11.10;99.90;;;;;;7581753;19;19926;-75
2024/02/04 17:27:06;;;;;;;5.25;2.08;;;11.10;99.90;;;;;;7573548;19;20013;-76
2024/02/04 17:29:38;;;;;;;6.35;1.75;;;11.00;99.90;;;;;;7577915;19;20838;-75
2024/02/04 17:32:15;;;;;;;6.30;2.07;;;11.00;99.90;;;;;;7557863;19;20938;-75
2024/02/04 17:34:47;;;;;;;2.63;1.60;;;11.00;99.90;;;;;;7574237;19;20014;-75
2024/02/04 17:37:26;;;;;;;4.43;2.50;;;11.00;99.90;;;;;;7568253;19;20025;-75
2024/02/04 17:40:00;;;;;;;5.13;1.88;;;11.00;99.90;;;;;;7556893;19;20387;-76
2024/02/04 17:42:34;;;;;;;3.88;1.90;;;11.00;99.90;;;;;;7563365;19;20021;-76
2024/02/04 17:45:08;;;;;;;4.43;2.15;;;11.00;99.90;;;;;;7572155;19;20018;-75
2024/02/04 17:47:42;;;;;;;4.05;1.67;;;10.90;99.90;;;;;;7559139;19;20029;-75
2024/02/04 17:50:16;;;;;;;7.72;2.75;;;10.90;99.90;;;;;;7586135;19;20086;-76
2024/02/04 17:52:48;;;;;;;5.68;2.67;;;10.90;99.90;;;;;;7571602;19;20022;-75
2024/02/04 17:55:22;;;;;;;6.43;1.77;;;10.80;99.90;;;;;;7582445;19;20019;-75
2024/02/04 17:57:57;;;;;;;3.13;2.15;;;10.80;99.90;;;;;;7583737;19;20022;-76
2024/02/04 18:00:32;;;;;;;3.67;1.98;;;10.70;99.90;;;;;;7537352;19;20048;-75
2024/02/04 18:03:06;;;;;;;4.97;2.10;;;10.70;99.90;;;;;;7574070;19;20026;-76
2024/02/04 18:05:42;;;;;;;10.15;2.25;;;10.70;99.90;;;;;;7575102;19;20026;-75
2024/02/04 18:08:15;;;;;;;5.80;2.08;;;10.70;99.90;;;;;;7576088;19;20037;-75
2024/02/04 18:10:48;;;;;;;11.38;2.65;;;10.70;99.90;;;;;;7571377;19;20011;-76
2024/02/04 18:13:23;;;;;;;8.38;2.55;;;10.60;99.90;;;;;;7566507;19;21035;-75
2024/02/04 18:15:55;;;;;;;5.28;1.98;;;10.60;99.90;;;;;;7559542;19;20894;-75
2024/02/04 18:18:28;;;;;;;5.80;2.10;;;10.60;99.90;;;;;;7548506;19;20018;-75
2024/02/04 18:21:00;;;;;;;3.22;1.90;;;10.60;99.90;;;;;;7554173;19;20056;-75
2024/02/04 18:23:34;;;;;;;8.18;2.10;;;10.50;99.90;;;;;;7558807;19;20011;-75
2024/02/04 18:26:18;;;;;;;6.73;2.27;;;10.50;99.90;;;;;;7576014;19;20019;-76
2024/02/04 18:28:51;;;;;;;5.88;2.25;;;10.40;99.90;;;;;;7580892;19;20022;-76
2024/02/04 18:31:31;;;;;;;4.38;2.25;;;10.40;99.90;;;;;;7595605;19;20538;-75
2024/02/04 18:34:03;;;;;;;6.40;2.10;;;10.40;99.90;;;;;;7588858;19;20018;-74
2024/02/04 18:36:36;;;;;;;5.03;1.80;;;10.30;99.90;;;;;;7563097;19;20029;-74
2024/02/04 18:39:09;;;;;;;7.80;2.70;;;10.20;99.90;;;;;;7578220;19;20829;-75
2024/02/04 18:41:45;;;;;;;5.20;2.67;;;10.20;99.90;;;;;;7570215;19;21081;-75
2024/02/04 18:44:18;;;;;;;7.43;2.33;;;10.20;99.90;;;;;;7566547;19;21019;-75
2024/02/04 18:46:52;;;;;;;5.95;1.77;;;10.20;99.90;;;;;;7565719;19;21470;-74
2024/02/04 18:49:24;;;;;;;8.50;2.30;;;10.20;99.90;;;;;;7566422;19;24851;-74
2024/02/04 18:51:57;;;;;;;8.63;2.58;;;10.20;99.90;;;;;;7564592;19;20961;-73
2024/02/04 18:54:33;;;;;;;5.60;2.50;;;10.20;99.90;;;;;;7592379;19;20890;-75
2024/02/04 18:57:05;;;;;;;6.90;2.00;;;10.10;99.90;;;;;;7595181;19;20294;-76
2024/02/04 18:59:38;;;;;;;7.03;1.60;;;10.10;99.90;;;;;;7571979;19;20025;-73
2024/02/04 19:02:11;;;;;;;5.50;2.20;;;10.20;99.90;;;;;;7592384;19;20018;-76
2024/02/04 19:04:44;;;;;;;5.25;1.98;;;10.20;99.90;;;;;;7573791;19;21054;-74
2024/02/04 19:07:18;;;;;;;6.32;1.95;;;10.20;99.90;;;;;;7574019;19;20021;-74
2024/02/04 19:09:51;;;;;;;6.35;2.28;;;10.30;99.90;;;;;;7570519;19;20381;-74
2024/02/04 19:12:24;;;;;;;7.30;1.85;;;10.30;99.90;;;;;;7581626;19;20019;-76
2024/02/04 19:15:00;;;;;;;4.55;1.80;;;10.20;99.90;;;;;;7569928;19;20601;-74
2024/02/04 19:17:34;;;;;;;7.68;2.20;;;10.20;99.90;;;;;;7564500;19;20015;-76
2024/02/04 19:20:12;;;;;;;8.05;3.00;;;10.20;99.90;;;;;;7576397;19;20484;-76
2024/02/04 19:22:46;;;;;;;6.93;2.63;;;10.20;99.90;;;;;;7581940;19;20018;-75
2024/02/04 19:25:19;;;;;;;3.92;1.90;;;10.10;99.90;;;;;;7589490;19;20019;-75
2024/02/04 19:27:53;;;;;;;12.38;2.13;;;10.10;99.90;;;;;;7586051;19;20029;-76
2024/02/04 19:30:27;;;;;;;7.63;1.70;;;10.10;99.90;;;;;;7585212;19;20021;-74
2024/02/04 19:33:00;;;;;;;5.55;1.85;;;10.10;99.90;;;;;;7577104;19;20014;-74
2024/02/04 19:35:32;;;;;;;6.22;1.98;;;10.20;99.90;;;;;;7575619;19;20014;-74
2024/02/04 19:38:05;;;;;;;6.35;2.33;;;10.10;99.90;;;;;;7571050;19;20010;-75
2024/02/04 19:40:39;;;;;;;5.05;2.20;;;10.00;99.90;;;;;;7581737;19;20019;-74
2024/02/04 19:43:11;;;;;;;4.05;1.77;;;10.10;99.90;;;;;;7561933;19;20025;-77
2024/02/04 19:45:44;;;;;;;9.02;1.75;;;10.10;99.90;;;;;;7570500;19;20491;-74
2024/02/04 19:48:18;;;;;;;3.53;1.90;;;10.10;99.90;;;;;;7565861;19;20015;-77
2024/02/04 19:50:50;;;;;;;5.75;2.08;;;10.00;99.90;;;;;;7578134;19;20099;-76
2024/02/04 19:53:23;;;;;;;4.97;1.70;;;10.10;99.90;;;;;;7586036;19;20014;-75
2024/02/04 19:55:57;;;;;;;13.93;6.72;;;10.00;99.90;;;;;;7593602;19;20442;-76
2024/02/04 19:58:30;;;;;;;6.60;2.03;;;10.00;99.90;;;;;;7589595;19;20024;-76
2024/02/04 20:01:03;;;;;;;10.98;2.15;;;10.00;99.90;;;;;;7583236;19;20021;-75
2024/02/04 20:03:36;;;;;;;5.55;1.83;;;10.00;99.90;;;;;;7591830;19;20034;-75
2024/02/04 20:06:09;;;;;;;6.03;1.80;;;10.00;99.90;;;;;;7576776;19;20025;-76
2024/02/04 20:08:42;;;;;;;4.18;1.75;;;10.00;99.90;;;;;;7590315;19;20616;-75
2024/02/04 20:11:14;;;;;;;4.05;1.40;;;10.00;99.90;;;;;;7599981;19;20018;-75
2024/02/04 20:13:47;;;;;;;14.30;1.93;;;10.00;99.90;;;;;;7584737;19;20014;-75
2024/02/04 20:16:19;;;;;;;3.35;1.65;;;10.20;99.90;;;;;;7585199;19;20015;-75
2024/02/04 20:18:54;;;;;;;5.47;1.67;;;10.10;99.90;;;;;;7585368;19;25618;-76
2024/02/04 20:21:27;;;;;;;1.80;1.10;;;10.20;99.90;;;;;;7582903;19;20014;-75
2024/02/04 20:24:00;;;;;;;4.82;1.55;;;10.10;99.90;;;;;;7575183;19;20139;-75
2024/02/04 20:26:33;;;;;;;3.85;1.58;;;10.10;99.90;;;;;;7590094;19;20102;-75
2024/02/04 20:29:06;;;;;;;6.13;1.70;;;10.10;99.90;;;;;;7579811;19;20846;-74
2024/02/04 20:31:40;;;;;;;5.47;1.58;;;10.20;99.90;;;;;;7600099;19;20018;-74
2024/02/04 20:34:14;;;;;;;6.50;1.67;;;10.10;99.90;;;;;;7599721;19;20010;-74
2024/02/04 20:36:49;;;;;;;;;;;10.10;99.90;;;;;;7596458;19;20025;-74
2024/02/04 20:39:22;;;;;;;3.15;1.40;;;10.10;99.90;;;;;;7584426;19;19919;-75
2024/02/04 20:41:57;;;;;;;5.57;1.58;;;10.00;99.90;;;;;;7602049;19;20543;-74
2024/02/04 20:44:30;;;;;;;10.52;2.00;;;10.00;99.90;;;;;;7605859;19;20030;-75
2024/02/04 20:47:03;;;;;;;3.60;1.63;;;10.00;99.90;;;;;;7606634;19;20014;-74
2024/02/04 20:49:35;;;;;;;3.88;1.50;;;10.00;99.90;;;;;;7604322;19;20106;-74
2024/02/04 20:52:07;;;;;;;3.72;1.85;;;10.00;99.90;;;;;;7599129;19;20024;-75
2024/02/04 20:54:40;;;;;;;9.05;2.35;;;10.00;99.90;;;;;;7597586;19;20047;-75
2024/02/04 20:57:12;;;;;;;4.82;1.60;;;10.00;99.90;;;;;;7601785;19;20124;-76
2024/02/04 20:59:45;;;;;;;5.72;1.60;;;10.00;99.90;;;;;;7596949;19;20022;-76
2024/02/04 21:02:17;;;;;;;4.82;1.23;;;10.10;99.90;;;;;;7603810;19;20097;-76
2024/02/04 21:04:49;;;;;;;11.25;3.30;;;10.20;99.90;;;;;;7588941;19;20038;-75
2024/02/04 21:07:22;;;;;;;4.00;1.70;;;10.10;99.90;;;;;;7592327;19;20014;-75
2024/02/04 21:09:54;;;;;;;6.45;1.75;;;10.10;99.90;;;;;;7600653;19;20006;-75
2024/02/04 21:12:27;;;;;;;5.10;1.63;;;10.00;99.90;;;;;;7604700;19;20030;-76
2024/02/04 21:15:02;;;;;;;5.13;1.40;;;10.10;99.90;;;;;;7605035;19;20010;-76
2024/02/04 21:17:36;;;;;;;8.02;1.48;;;10.00;99.90;;;;;;7605250;19;20591;-75
2024/02/04 21:20:10;;;;;;;5.70;2.28;;;10.10;99.90;;;;;;7606455;19;20014;-74
2024/02/04 21:22:45;;;;;;;4.00;1.65;;;10.10;99.90;;;;;;7600011;19;20546;-73
2024/02/04 21:25:17;;;;;;;5.47;1.58;;;10.10;99.90;;;;;;7607716;19;20616;-74
2024/02/04 21:27:50;;;;;;;5.03;1.55;;;10.10;99.90;;;;;;7608092;19;20014;-74
2024/02/04 21:30:23;;;;;;;7.28;1.95;;;10.00;99.90;;;;;;7580686;19;20016;-75
2024/02/04 21:32:55;;;;;;;8.68;1.70;;;10.00;99.90;;;;;;7602416;19;20017;-74
2024/02/04 21:35:27;;;;;;;11.75;1.80;;;10.00;99.90;;;;;;7598655;19;20480;-75
2024/02/04 21:38:00;;;;;;;6.97;1.90;;;9.90;99.90;;;;;;7600134;19;20936;-75
2024/02/04 21:40:32;;;;;;;6.50;1.42;;;10.00;99.90;;;;;;7605820;19;20014;-76
2024/02/04 21:43:05;;;;;;;7.78;1.48;;;10.00;99.90;;;;;;7602941;19;20379;-75
